sensor_id;sensor_type;location;lat;lon;timestamp;temperature;humidity
78514;SHT31;67814;51.976;5.810;2023-03-14T00:00:23;14.1;65.0
78514;SHT31;67814;51.976;5.810;2023-03-14T00:02:53;14.1;65.0
78514;SHT31;67814;51.976;5.810;2023-03-14T00:05:24;14.1;65.1
78514;SHT31;67814;51.976;5.810;2023-03-14T00:07:54;14.2;64.9
78514;SHT31;67814;51.976;5.810;2023-03-14T00:10:24;14.2;64.7
78514;SHT31;67814;51.976;5.810;2023-03-14T00:12:53;14.2;65.1
78514;SHT31;67814;51.976;5.810;2023-03-14T00:15:23;14.2;66.3
78514;SHT31;67814;51.976;5.810;2023-03-14T00:17:53;14.2;67.2
78514;SHT31;67814;51.976;5.810;2023-03-14T00:20:22;14.1;68.1
78514;SHT31;67814;51.976;5.810;2023-03-14T00:22:52;14.1;68.8
78514;SHT31;67814;51.976;5.810;2023-03-14T00:25:22;13.9;69.0
78514;SHT31;67814;51.976;5.810;2023-03-14T00:27:52;13.8;69.1
78514;SHT31;67814;51.976;5.810;2023-03-14T00:30:22;13.7;69.5
78514;SHT31;67814;51.976;5.810;2023-03-14T00:32:53;13.6;70.4
78514;SHT31;67814;51.976;5.810;2023-03-14T00:35:23;13.5;70.2
78514;SHT31;67814;51.976;5.810;2023-03-14T00:37:52;13.4;70.1
78514;SHT31;67814;51.976;5.810;2023-03-14T00:40:22;13.3;69.7
78514;SHT31;67814;51.976;5.810;2023-03-14T00:42:51;13.3;69.2
78514;SHT31;67814;51.976;5.810;2023-03-14T00:45:21;13.2;69.3
78514;SHT31;67814;51.976;5.810;2023-03-14T00:47:51;13.2;68.6
78514;SHT31;67814;51.976;5.810;2023-03-14T00:50:20;13.1;68.5
78514;SHT31;67814;51.976;5.810;2023-03-14T00:52:50;13.1;68.6
78514;SHT31;67814;51.976;5.810;2023-03-14T00:55:19;13.1;67.9
78514;SHT31;67814;51.976;5.810;2023-03-14T00:57:49;13.0;68.1
78514;SHT31;67814;51.976;5.810;2023-03-14T01:00:19;13.0;68.0
78514;SHT31;67814;51.976;5.810;2023-03-14T01:02:49;13.0;67.8
78514;SHT31;67814;51.976;5.810;2023-03-14T01:05:18;12.9;68.2
78514;SHT31;67814;51.976;5.810;2023-03-14T01:07:48;12.9;68.4
78514;SHT31;67814;51.976;5.810;2023-03-14T01:10:18;12.9;68.2
78514;SHT31;67814;51.976;5.810;2023-03-14T01:12:48;12.9;68.3
78514;SHT31;67814;51.976;5.810;2023-03-14T01:15:18;12.9;68.2
78514;SHT31;67814;51.976;5.810;2023-03-14T01:17:48;12.9;68.5
78514;SHT31;67814;51.976;5.810;2023-03-14T01:20:18;12.8;68.6
78514;SHT31;67814;51.976;5.810;2023-03-14T01:22:47;12.8;68.9
78514;SHT31;67814;51.976;5.810;2023-03-14T01:25:17;12.9;68.1
78514;SHT31;67814;51.976;5.810;2023-03-14T01:27:47;12.9;68.0
78514;SHT31;67814;51.976;5.810;2023-03-14T01:30:17;12.9;67.6
78514;SHT31;67814;51.976;5.810;2023-03-14T01:32:47;12.9;67.2
78514;SHT31;67814;51.976;5.810;2023-03-14T01:35:16;12.9;67.6
78514;SHT31;67814;51.976;5.810;2023-03-14T01:37:48;12.9;66.9
78514;SHT31;67814;51.976;5.810;2023-03-14T01:40:18;12.8;67.1
78514;SHT31;67814;51.976;5.810;2023-03-14T01:43:00;12.8;68.0
78514;SHT31;67814;51.976;5.810;2023-03-14T01:46:01;12.8;67.8
78514;SHT31;67814;51.976;5.810;2023-03-14T01:48:34;12.8;68.1
78514;SHT31;67814;51.976;5.810;2023-03-14T01:51:08;12.7;68.4
78514;SHT31;67814;51.976;5.810;2023-03-14T01:53:40;12.7;68.7
78514;SHT31;67814;51.976;5.810;2023-03-14T01:56:14;12.7;69.3
78514;SHT31;67814;51.976;5.810;2023-03-14T01:58:48;12.6;69.8
78514;SHT31;67814;51.976;5.810;2023-03-14T02:01:21;12.6;70.4
78514;SHT31;67814;51.976;5.810;2023-03-14T02:03:56;12.5;71.2
78514;SHT31;67814;51.976;5.810;2023-03-14T02:06:33;12.5;71.4
78514;SHT31;67814;51.976;5.810;2023-03-14T02:09:05;12.4;71.7
78514;SHT31;67814;51.976;5.810;2023-03-14T02:11:34;12.3;72.0
78514;SHT31;67814;51.976;5.810;2023-03-14T02:14:04;12.3;72.5
78514;SHT31;67814;51.976;5.810;2023-03-14T02:16:35;12.2;72.0
78514;SHT31;67814;51.976;5.810;2023-03-14T02:19:08;12.1;72.7
78514;SHT31;67814;51.976;5.810;2023-03-14T02:21:49;12.0;73.0
78514;SHT31;67814;51.976;5.810;2023-03-14T02:24:29;12.0;73.3
78514;SHT31;67814;51.976;5.810;2023-03-14T02:27:06;11.9;73.7
78514;SHT31;67814;51.976;5.810;2023-03-14T02:29:39;11.9;74.1
78514;SHT31;67814;51.976;5.810;2023-03-14T02:32:11;11.9;74.2
78514;SHT31;67814;51.976;5.810;2023-03-14T02:34:43;11.8;74.3
78514;SHT31;67814;51.976;5.810;2023-03-14T02:37:17;11.8;74.3
78514;SHT31;67814;51.976;5.810;2023-03-14T02:39:48;11.8;74.5
78514;SHT31;67814;51.976;5.810;2023-03-14T02:42:18;11.8;74.8
78514;SHT31;67814;51.976;5.810;2023-03-14T02:44:54;11.7;74.5
78514;SHT31;67814;51.976;5.810;2023-03-14T02:47:30;11.7;74.8
78514;SHT31;67814;51.976;5.810;2023-03-14T02:50:05;11.7;75.0
78514;SHT31;67814;51.976;5.810;2023-03-14T02:52:36;11.7;75.0
78514;SHT31;67814;51.976;5.810;2023-03-14T02:55:06;11.7;74.9
78514;SHT31;67814;51.976;5.810;2023-03-14T02:57:36;11.7;74.4
78514;SHT31;67814;51.976;5.810;2023-03-14T03:00:06;11.7;74.4
78514;SHT31;67814;51.976;5.810;2023-03-14T03:02:36;11.8;73.7
78514;SHT31;67814;51.976;5.810;2023-03-14T03:05:06;11.8;73.3
78514;SHT31;67814;51.976;5.810;2023-03-14T03:07:38;11.8;72.9
78514;SHT31;67814;51.976;5.810;2023-03-14T03:10:08;11.8;73.1
78514;SHT31;67814;51.976;5.810;2023-03-14T03:12:38;11.8;73.0
78514;SHT31;67814;51.976;5.810;2023-03-14T03:15:09;11.9;73.1
78514;SHT31;67814;51.976;5.810;2023-03-14T03:17:38;11.9;72.8
78514;SHT31;67814;51.976;5.810;2023-03-14T03:20:09;11.9;72.4
78514;SHT31;67814;51.976;5.810;2023-03-14T03:22:39;11.9;72.1
78514;SHT31;67814;51.976;5.810;2023-03-14T03:25:10;12.0;71.8
78514;SHT31;67814;51.976;5.810;2023-03-14T03:27:39;12.0;71.8
78514;SHT31;67814;51.976;5.810;2023-03-14T03:30:10;12.0;71.6
78514;SHT31;67814;51.976;5.810;2023-03-14T03:32:39;12.0;71.4
78514;SHT31;67814;51.976;5.810;2023-03-14T03:35:09;12.1;71.1
78514;SHT31;67814;51.976;5.810;2023-03-14T03:37:40;12.1;71.1
78514;SHT31;67814;51.976;5.810;2023-03-14T03:40:12;12.1;71.1
78514;SHT31;67814;51.976;5.810;2023-03-14T03:42:42;12.1;70.4
78514;SHT31;67814;51.976;5.810;2023-03-14T03:45:12;12.1;71.0
78514;SHT31;67814;51.976;5.810;2023-03-14T03:47:41;12.1;70.8
78514;SHT31;67814;51.976;5.810;2023-03-14T03:50:11;12.1;70.3
78514;SHT31;67814;51.976;5.810;2023-03-14T03:52:43;12.1;70.5
78514;SHT31;67814;51.976;5.810;2023-03-14T03:55:14;12.1;70.3
78514;SHT31;67814;51.976;5.810;2023-03-14T03:57:44;12.1;70.2
78514;SHT31;67814;51.976;5.810;2023-03-14T04:00:14;12.1;70.2
78514;SHT31;67814;51.976;5.810;2023-03-14T04:02:44;12.1;70.0
78514;SHT31;67814;51.976;5.810;2023-03-14T04:05:14;12.1;69.8
78514;SHT31;67814;51.976;5.810;2023-03-14T04:07:44;12.1;69.8
78514;SHT31;67814;51.976;5.810;2023-03-14T04:10:13;12.1;69.9
78514;SHT31;67814;51.976;5.810;2023-03-14T04:12:43;12.1;69.9
78514;SHT31;67814;51.976;5.810;2023-03-14T04:15:14;12.1;69.8
78514;SHT31;67814;51.976;5.810;2023-03-14T04:17:44;12.0;69.9
78514;SHT31;67814;51.976;5.810;2023-03-14T04:20:16;12.0;70.1
78514;SHT31;67814;51.976;5.810;2023-03-14T04:22:48;12.1;69.7
78514;SHT31;67814;51.976;5.810;2023-03-14T04:25:18;12.1;69.6
78514;SHT31;67814;51.976;5.810;2023-03-14T04:27:48;12.1;70.1
78514;SHT31;67814;51.976;5.810;2023-03-14T04:30:17;12.1;69.1
78514;SHT31;67814;51.976;5.810;2023-03-14T04:32:49;12.1;69.2
78514;SHT31;67814;51.976;5.810;2023-03-14T04:35:19;12.1;69.1
78514;SHT31;67814;51.976;5.810;2023-03-14T04:37:48;12.1;69.4
78514;SHT31;67814;51.976;5.810;2023-03-14T04:40:19;12.1;69.1
78514;SHT31;67814;51.976;5.810;2023-03-14T04:42:49;12.1;69.2
78514;SHT31;67814;51.976;5.810;2023-03-14T04:45:20;12.2;69.5
78514;SHT31;67814;51.976;5.810;2023-03-14T04:47:50;12.3;68.9
78514;SHT31;67814;51.976;5.810;2023-03-14T04:50:22;12.4;68.0
78514;SHT31;67814;51.976;5.810;2023-03-14T04:52:51;12.4;67.7
78514;SHT31;67814;51.976;5.810;2023-03-14T04:55:21;12.4;67.9
78514;SHT31;67814;51.976;5.810;2023-03-14T04:57:50;12.5;67.5
78514;SHT31;67814;51.976;5.810;2023-03-14T05:00:20;12.5;67.4
78514;SHT31;67814;51.976;5.810;2023-03-14T05:02:52;12.5;67.2
78514;SHT31;67814;51.976;5.810;2023-03-14T05:05:22;12.5;67.5
78514;SHT31;67814;51.976;5.810;2023-03-14T05:07:52;12.5;67.7
78514;SHT31;67814;51.976;5.810;2023-03-14T05:10:21;12.5;67.6
78514;SHT31;67814;51.976;5.810;2023-03-14T05:12:51;12.5;67.8
78514;SHT31;67814;51.976;5.810;2023-03-14T05:15:20;12.5;67.6
78514;SHT31;67814;51.976;5.810;2023-03-14T05:17:50;12.5;67.2
78514;SHT31;67814;51.976;5.810;2023-03-14T05:20:21;12.5;67.3
78514;SHT31;67814;51.976;5.810;2023-03-14T05:22:51;12.4;67.4
78514;SHT31;67814;51.976;5.810;2023-03-14T05:25:20;12.4;67.6
78514;SHT31;67814;51.976;5.810;2023-03-14T05:27:53;12.4;67.9
78514;SHT31;67814;51.976;5.810;2023-03-14T05:30:22;12.4;68.3
78514;SHT31;67814;51.976;5.810;2023-03-14T05:32:54;12.3;68.8
78514;SHT31;67814;51.976;5.810;2023-03-14T05:35:23;12.3;69.0
78514;SHT31;67814;51.976;5.810;2023-03-14T05:37:53;12.3;69.0
78514;SHT31;67814;51.976;5.810;2023-03-14T05:40:23;12.3;69.1
78514;SHT31;67814;51.976;5.810;2023-03-14T05:42:52;12.3;69.4
78514;SHT31;67814;51.976;5.810;2023-03-14T05:45:22;12.3;69.5
78514;SHT31;67814;51.976;5.810;2023-03-14T05:47:51;12.3;69.7
78514;SHT31;67814;51.976;5.810;2023-03-14T05:50:21;12.3;69.9
78514;SHT31;67814;51.976;5.810;2023-03-14T05:52:51;12.3;70.1
78514;SHT31;67814;51.976;5.810;2023-03-14T05:55:20;12.3;70.3
78514;SHT31;67814;51.976;5.810;2023-03-14T05:57:50;12.2;70.6
78514;SHT31;67814;51.976;5.810;2023-03-14T06:00:20;12.2;70.7
78514;SHT31;67814;51.976;5.810;2023-03-14T06:02:50;12.2;70.9
78514;SHT31;67814;51.976;5.810;2023-03-14T06:05:20;12.2;71.0
78514;SHT31;67814;51.976;5.810;2023-03-14T06:07:51;12.2;71.0
78514;SHT31;67814;51.976;5.810;2023-03-14T06:10:21;12.2;71.1
78514;SHT31;67814;51.976;5.810;2023-03-14T06:12:51;12.2;71.1
78514;SHT31;67814;51.976;5.810;2023-03-14T06:15:21;12.1;71.4
78514;SHT31;67814;51.976;5.810;2023-03-14T06:17:51;12.1;71.5
78514;SHT31;67814;51.976;5.810;2023-03-14T06:20:21;12.1;71.6
78514;SHT31;67814;51.976;5.810;2023-03-14T06:22:51;12.1;71.8
78514;SHT31;67814;51.976;5.810;2023-03-14T06:25:20;12.1;72.1
78514;SHT31;67814;51.976;5.810;2023-03-14T06:27:50;12.1;72.3
78514;SHT31;67814;51.976;5.810;2023-03-14T06:30:21;12.0;72.7
78514;SHT31;67814;51.976;5.810;2023-03-14T06:32:51;12.0;73.0
78514;SHT31;67814;51.976;5.810;2023-03-14T06:35:21;11.9;73.5
78514;SHT31;67814;51.976;5.810;2023-03-14T06:37:53;11.9;73.8
78514;SHT31;67814;51.976;5.810;2023-03-14T06:40:23;11.9;74.2
78514;SHT31;67814;51.976;5.810;2023-03-14T06:42:52;11.9;74.2
78514;SHT31;67814;51.976;5.810;2023-03-14T06:45:22;11.9;74.3
78514;SHT31;67814;51.976;5.810;2023-03-14T06:47:52;11.9;74.5
78514;SHT31;67814;51.976;5.810;2023-03-14T06:50:24;11.9;74.5
78514;SHT31;67814;51.976;5.810;2023-03-14T06:52:54;11.9;74.8
78514;SHT31;67814;51.976;5.810;2023-03-14T06:55:23;11.9;74.7
78514;SHT31;67814;51.976;5.810;2023-03-14T06:57:53;11.9;74.9
78514;SHT31;67814;51.976;5.810;2023-03-14T07:00:23;11.9;75.1
78514;SHT31;67814;51.976;5.810;2023-03-14T07:02:53;11.9;75.2
78514;SHT31;67814;51.976;5.810;2023-03-14T07:05:23;11.9;75.3
78514;SHT31;67814;51.976;5.810;2023-03-14T07:07:52;11.9;75.7
78514;SHT31;67814;51.976;5.810;2023-03-14T07:10:22;11.9;75.8
78514;SHT31;67814;51.976;5.810;2023-03-14T07:12:52;11.9;75.9
78514;SHT31;67814;51.976;5.810;2023-03-14T07:15:24;12.0;75.4
78514;SHT31;67814;51.976;5.810;2023-03-14T07:17:53;12.0;75.5
78514;SHT31;67814;51.976;5.810;2023-03-14T07:20:23;12.0;75.4
78514;SHT31;67814;51.976;5.810;2023-03-14T07:22:53;12.0;75.3
78514;SHT31;67814;51.976;5.810;2023-03-14T07:25:22;12.0;73.8
78514;SHT31;67814;51.976;5.810;2023-03-14T07:27:52;11.9;72.5
78514;SHT31;67814;51.976;5.810;2023-03-14T07:30:22;11.9;72.1
78514;SHT31;67814;51.976;5.810;2023-03-14T07:32:51;11.8;71.6
78514;SHT31;67814;51.976;5.810;2023-03-14T07:35:21;11.7;71.7
78514;SHT31;67814;51.976;5.810;2023-03-14T07:37:51;11.6;71.2
78514;SHT31;67814;51.976;5.810;2023-03-14T07:40:20;11.6;70.9
78514;SHT31;67814;51.976;5.810;2023-03-14T07:42:50;11.5;70.8
78514;SHT31;67814;51.976;5.810;2023-03-14T07:45:22;11.4;71.4
78514;SHT31;67814;51.976;5.810;2023-03-14T07:47:52;11.3;71.6
78514;SHT31;67814;51.976;5.810;2023-03-14T07:50:25;11.2;72.5
78514;SHT31;67814;51.976;5.810;2023-03-14T07:52:55;11.1;73.0
78514;SHT31;67814;51.976;5.810;2023-03-14T07:55:24;11.0;73.8
78514;SHT31;67814;51.976;5.810;2023-03-14T07:57:54;10.9;73.0
78514;SHT31;67814;51.976;5.810;2023-03-14T08:00:24;10.8;72.2
78514;SHT31;67814;51.976;5.810;2023-03-14T08:02:54;10.7;73.1
78514;SHT31;67814;51.976;5.810;2023-03-14T08:05:24;10.6;73.8
78514;SHT31;67814;51.976;5.810;2023-03-14T08:07:53;10.5;74.3
78514;SHT31;67814;51.976;5.810;2023-03-14T08:10:23;10.5;74.7
78514;SHT31;67814;51.976;5.810;2023-03-14T08:12:54;10.4;73.9
78514;SHT31;67814;51.976;5.810;2023-03-14T08:15:25;10.4;74.2
78514;SHT31;67814;51.976;5.810;2023-03-14T08:17:56;10.3;73.7
78514;SHT31;67814;51.976;5.810;2023-03-14T08:20:28;10.2;74.4
78514;SHT31;67814;51.976;5.810;2023-03-14T08:22:59;10.2;75.1
78514;SHT31;67814;51.976;5.810;2023-03-14T08:25:29;10.1;74.1
78514;SHT31;67814;51.976;5.810;2023-03-14T08:27:59;10.1;73.9
78514;SHT31;67814;51.976;5.810;2023-03-14T08:30:29;10.0;74.1
78514;SHT31;67814;51.976;5.810;2023-03-14T08:32:59;10.0;73.8
78514;SHT31;67814;51.976;5.810;2023-03-14T08:35:29;9.9;74.3
78514;SHT31;67814;51.976;5.810;2023-03-14T08:37:59;9.9;74.8
78514;SHT31;67814;51.976;5.810;2023-03-14T08:40:29;9.9;74.8
78514;SHT31;67814;51.976;5.810;2023-03-14T08:42:58;9.9;74.4
78514;SHT31;67814;51.976;5.810;2023-03-14T08:45:28;9.8;72.9
78514;SHT31;67814;51.976;5.810;2023-03-14T08:48:01;9.8;71.0
78514;SHT31;67814;51.976;5.810;2023-03-14T08:50:31;9.7;71.5
78514;SHT31;67814;51.976;5.810;2023-03-14T08:53:00;9.6;71.4
78514;SHT31;67814;51.976;5.810;2023-03-14T08:55:30;9.6;71.2
78514;SHT31;67814;51.976;5.810;2023-03-14T08:58:00;9.5;71.8
78514;SHT31;67814;51.976;5.810;2023-03-14T09:00:29;9.4;71.6
78514;SHT31;67814;51.976;5.810;2023-03-14T09:02:59;9.3;71.2
78514;SHT31;67814;51.976;5.810;2023-03-14T09:05:29;9.2;70.6
78514;SHT31;67814;51.976;5.810;2023-03-14T09:08:02;9.2;71.5
78514;SHT31;67814;51.976;5.810;2023-03-14T09:10:31;9.1;71.7
78514;SHT31;67814;51.976;5.810;2023-03-14T09:13:01;9.1;72.3
78514;SHT31;67814;51.976;5.810;2023-03-14T09:15:32;9.1;72.1
78514;SHT31;67814;51.976;5.810;2023-03-14T09:18:02;9.1;69.2
78514;SHT31;67814;51.976;5.810;2023-03-14T09:20:31;9.0;69.4
78514;SHT31;67814;51.976;5.810;2023-03-14T09:23:01;9.0;69.5
78514;SHT31;67814;51.976;5.810;2023-03-14T09:25:30;8.9;69.5
78514;SHT31;67814;51.976;5.810;2023-03-14T09:28:00;8.9;69.9
78514;SHT31;67814;51.976;5.810;2023-03-14T09:30:32;8.9;70.3
78514;SHT31;67814;51.976;5.810;2023-03-14T09:33:03;8.8;69.6
78514;SHT31;67814;51.976;5.810;2023-03-14T09:35:36;8.9;68.0
78514;SHT31;67814;51.976;5.810;2023-03-14T09:38:06;8.9;69.2
78514;SHT31;67814;51.976;5.810;2023-03-14T09:40:37;8.9;70.0
78514;SHT31;67814;51.976;5.810;2023-03-14T09:43:10;8.9;68.2
78514;SHT31;67814;51.976;5.810;2023-03-14T09:45:42;9.0;68.5
78514;SHT31;67814;51.976;5.810;2023-03-14T09:48:16;9.0;68.5
78514;SHT31;67814;51.976;5.810;2023-03-14T09:50:50;9.1;65.8
78514;SHT31;67814;51.976;5.810;2023-03-14T09:53:24;9.1;66.9
78514;SHT31;67814;51.976;5.810;2023-03-14T09:55:59;9.1;68.1
78514;SHT31;67814;51.976;5.810;2023-03-14T09:58:29;9.1;67.5
78514;SHT31;67814;51.976;5.810;2023-03-14T10:01:00;9.1;66.8
78514;SHT31;67814;51.976;5.810;2023-03-14T10:03:33;9.1;65.1
78514;SHT31;67814;51.976;5.810;2023-03-14T10:06:12;9.1;66.1
78514;SHT31;67814;51.976;5.810;2023-03-14T10:08:44;9.1;65.2
78514;SHT31;67814;51.976;5.810;2023-03-14T10:11:17;9.1;64.7
78514;SHT31;67814;51.976;5.810;2023-03-14T10:14:05;9.2;65.8
78514;SHT31;67814;51.976;5.810;2023-03-14T10:16:37;9.2;63.2
78514;SHT31;67814;51.976;5.810;2023-03-14T10:19:11;9.3;62.9
78514;SHT31;67814;51.976;5.810;2023-03-14T10:21:42;9.3;63.4
78514;SHT31;67814;51.976;5.810;2023-03-14T10:24:19;9.3;62.8
78514;SHT31;67814;51.976;5.810;2023-03-14T10:26:52;9.3;63.3
78514;SHT31;67814;51.976;5.810;2023-03-14T10:29:22;9.4;64.1
78514;SHT31;67814;51.976;5.810;2023-03-14T10:31:54;9.4;64.4
78514;SHT31;67814;51.976;5.810;2023-03-14T10:34:26;9.5;62.4
78514;SHT31;67814;51.976;5.810;2023-03-14T10:36:59;9.5;62.7
78514;SHT31;67814;51.976;5.810;2023-03-14T10:39:41;9.6;63.5
78514;SHT31;67814;51.976;5.810;2023-03-14T10:42:19;9.6;60.8
78514;SHT31;67814;51.976;5.810;2023-03-14T10:44:55;9.7;62.0
78514;SHT31;67814;51.976;5.810;2023-03-14T10:47:27;9.7;60.6
78514;SHT31;67814;51.976;5.810;2023-03-14T10:50:22;9.7;61.3
78514;SHT31;67814;51.976;5.810;2023-03-14T10:52:54;9.8;60.6
78514;SHT31;67814;51.976;5.810;2023-03-14T10:55:25;9.9;61.9
78514;SHT31;67814;51.976;5.810;2023-03-14T10:57:55;9.9;62.5
78514;SHT31;67814;51.976;5.810;2023-03-14T11:00:24;9.9;62.9
78514;SHT31;67814;51.976;5.810;2023-03-14T11:03:04;9.9;63.1
78514;SHT31;67814;51.976;5.810;2023-03-14T11:05:44;9.8;63.0
78514;SHT31;67814;51.976;5.810;2023-03-14T11:08:23;9.8;60.8
78514;SHT31;67814;51.976;5.810;2023-03-14T11:11:02;9.7;60.4
78514;SHT31;67814;51.976;5.810;2023-03-14T11:13:39;9.7;62.7
78514;SHT31;67814;51.976;5.810;2023-03-14T11:16:18;9.6;60.3
78514;SHT31;67814;51.976;5.810;2023-03-14T11:19:04;9.6;61.0
78514;SHT31;67814;51.976;5.810;2023-03-14T11:21:43;9.6;60.2
78514;SHT31;67814;51.976;5.810;2023-03-14T11:24:25;9.6;58.7
78514;SHT31;67814;51.976;5.810;2023-03-14T11:27:00;9.6;57.5
78514;SHT31;67814;51.976;5.810;2023-03-14T11:29:39;9.6;55.5
78514;SHT31;67814;51.976;5.810;2023-03-14T11:32:14;9.6;56.8
78514;SHT31;67814;51.976;5.810;2023-03-14T11:34:51;9.5;58.1
78514;SHT31;67814;51.976;5.810;2023-03-14T11:37:27;9.5;55.8
78514;SHT31;67814;51.976;5.810;2023-03-14T11:40:10;9.6;56.2
78514;SHT31;67814;51.976;5.810;2023-03-14T11:42:44;9.6;54.6
78514;SHT31;67814;51.976;5.810;2023-03-14T11:45:19;9.6;54.6
78514;SHT31;67814;51.976;5.810;2023-03-14T11:47:59;9.7;52.9
78514;SHT31;67814;51.976;5.810;2023-03-14T11:50:32;9.7;52.3
78514;SHT31;67814;51.976;5.810;2023-03-14T11:53:08;9.7;51.8
78514;SHT31;67814;51.976;5.810;2023-03-14T11:55:41;9.7;53.2
78514;SHT31;67814;51.976;5.810;2023-03-14T11:58:17;9.7;52.1
78514;SHT31;67814;51.976;5.810;2023-03-14T12:00:52;9.7;52.2
78514;SHT31;67814;51.976;5.810;2023-03-14T12:03:31;9.7;50.9
78514;SHT31;67814;51.976;5.810;2023-03-14T12:06:12;9.7;50.0
78514;SHT31;67814;51.976;5.810;2023-03-14T12:08:50;9.8;51.1
78514;SHT31;67814;51.976;5.810;2023-03-14T12:11:33;9.8;48.7
78514;SHT31;67814;51.976;5.810;2023-03-14T12:14:22;9.9;49.9
78514;SHT31;67814;51.976;5.810;2023-03-14T12:16:58;10.0;46.8
78514;SHT31;67814;51.976;5.810;2023-03-14T12:19:37;10.0;45.8
78514;SHT31;67814;51.976;5.810;2023-03-14T12:22:30;10.0;46.7
78514;SHT31;67814;51.976;5.810;2023-03-14T12:25:05;10.0;45.0
78514;SHT31;67814;51.976;5.810;2023-03-14T12:30:37;9.9;43.9
78514;SHT31;67814;51.976;5.810;2023-03-14T12:34:58;9.9;44.5
78514;SHT31;67814;51.976;5.810;2023-03-14T12:37:37;9.8;43.9
78514;SHT31;67814;51.976;5.810;2023-03-14T12:40:20;9.8;45.0
78514;SHT31;67814;51.976;5.810;2023-03-14T12:42:57;9.9;44.0
78514;SHT31;67814;51.976;5.810;2023-03-14T12:45:30;9.9;42.4
78514;SHT31;67814;51.976;5.810;2023-03-14T12:48:10;9.9;43.0
78514;SHT31;67814;51.976;5.810;2023-03-14T12:50:46;9.9;42.7
78514;SHT31;67814;51.976;5.810;2023-03-14T12:53:42;9.9;42.9
78514;SHT31;67814;51.976;5.810;2023-03-14T12:56:24;9.9;42.8
78514;SHT31;67814;51.976;5.810;2023-03-14T12:59:16;9.8;40.9
78514;SHT31;67814;51.976;5.810;2023-03-14T13:01:58;9.8;39.9
78514;SHT31;67814;51.976;5.810;2023-03-14T13:04:32;9.8;40.2
78514;SHT31;67814;51.976;5.810;2023-03-14T13:07:03;9.8;41.7
78514;SHT31;67814;51.976;5.810;2023-03-14T13:09:55;9.8;40.8
78514;SHT31;67814;51.976;5.810;2023-03-14T13:12:31;9.8;40.3
78514;SHT31;67814;51.976;5.810;2023-03-14T13:15:19;9.8;41.4
78514;SHT31;67814;51.976;5.810;2023-03-14T13:17:53;9.8;41.2
78514;SHT31;67814;51.976;5.810;2023-03-14T13:20:29;9.8;41.6
78514;SHT31;67814;51.976;5.810;2023-03-14T13:23:00;9.8;41.5
78514;SHT31;67814;51.976;5.810;2023-03-14T13:25:35;9.9;39.1
78514;SHT31;67814;51.976;5.810;2023-03-14T13:28:05;9.9;40.6
78514;SHT31;67814;51.976;5.810;2023-03-14T13:30:40;9.9;38.7
78514;SHT31;67814;51.976;5.810;2023-03-14T13:33:14;10.0;38.3
78514;SHT31;67814;51.976;5.810;2023-03-14T13:35:46;10.0;38.3
78514;SHT31;67814;51.976;5.810;2023-03-14T13:38:20;9.9;37.4
78514;SHT31;67814;51.976;5.810;2023-03-14T13:40:53;9.9;37.7
78514;SHT31;67814;51.976;5.810;2023-03-14T13:43:30;9.9;37.0
78514;SHT31;67814;51.976;5.810;2023-03-14T13:46:04;9.9;36.7
78514;SHT31;67814;51.976;5.810;2023-03-14T13:48:40;9.8;37.9
78514;SHT31;67814;51.976;5.810;2023-03-14T13:51:13;9.8;37.8
78514;SHT31;67814;51.976;5.810;2023-03-14T13:53:46;9.7;39.1
78514;SHT31;67814;51.976;5.810;2023-03-14T13:56:18;9.7;38.8
78514;SHT31;67814;51.976;5.810;2023-03-14T13:58:50;9.7;38.9
78514;SHT31;67814;51.976;5.810;2023-03-14T14:01:23;9.7;39.8
78514;SHT31;67814;51.976;5.810;2023-03-14T14:03:56;9.7;38.7
78514;SHT31;67814;51.976;5.810;2023-03-14T14:06:31;9.6;38.5
78514;SHT31;67814;51.976;5.810;2023-03-14T14:09:03;9.6;39.7
78514;SHT31;67814;51.976;5.810;2023-03-14T14:11:39;9.6;38.2
78514;SHT31;67814;51.976;5.810;2023-03-14T14:14:16;9.6;39.6
78514;SHT31;67814;51.976;5.810;2023-03-14T14:16:49;9.6;38.7
78514;SHT31;67814;51.976;5.810;2023-03-14T14:19:22;9.6;39.0
78514;SHT31;67814;51.976;5.810;2023-03-14T14:21:53;9.6;37.8
78514;SHT31;67814;51.976;5.810;2023-03-14T14:24:27;9.6;37.7
78514;SHT31;67814;51.976;5.810;2023-03-14T14:27:03;9.6;38.0
78514;SHT31;67814;51.976;5.810;2023-03-14T14:29:36;9.6;39.0
78514;SHT31;67814;51.976;5.810;2023-03-14T14:32:14;9.6;39.3
78514;SHT31;67814;51.976;5.810;2023-03-14T14:34:45;9.6;38.4
78514;SHT31;67814;51.976;5.810;2023-03-14T14:37:20;9.6;39.0
78514;SHT31;67814;51.976;5.810;2023-03-14T14:39:53;9.6;37.8
78514;SHT31;67814;51.976;5.810;2023-03-14T14:42:26;9.5;38.1
78514;SHT31;67814;51.976;5.810;2023-03-14T14:44:58;9.5;38.0
78514;SHT31;67814;51.976;5.810;2023-03-14T14:47:29;9.4;37.5
78514;SHT31;67814;51.976;5.810;2023-03-14T14:50:04;9.4;36.7
78514;SHT31;67814;51.976;5.810;2023-03-14T14:52:40;9.4;36.7
78514;SHT31;67814;51.976;5.810;2023-03-14T14:55:18;9.4;39.1
78514;SHT31;67814;51.976;5.810;2023-03-14T14:57:53;9.3;38.3
78514;SHT31;67814;51.976;5.810;2023-03-14T15:00:26;9.3;38.6
78514;SHT31;67814;51.976;5.810;2023-03-14T15:02:59;9.3;37.4
78514;SHT31;67814;51.976;5.810;2023-03-14T15:05:31;9.3;36.9
78514;SHT31;67814;51.976;5.810;2023-03-14T15:08:08;9.3;37.5
78514;SHT31;67814;51.976;5.810;2023-03-14T15:10:38;9.3;37.2
78514;SHT31;67814;51.976;5.810;2023-03-14T15:13:08;9.3;37.8
78514;SHT31;67814;51.976;5.810;2023-03-14T15:15:38;9.3;37.5
78514;SHT31;67814;51.976;5.810;2023-03-14T15:18:15;9.3;37.7
78514;SHT31;67814;51.976;5.810;2023-03-14T15:20:45;9.3;38.1
78514;SHT31;67814;51.976;5.810;2023-03-14T15:23:17;9.3;38.5
78514;SHT31;67814;51.976;5.810;2023-03-14T15:25:48;9.3;38.6
78514;SHT31;67814;51.976;5.810;2023-03-14T15:28:20;9.3;39.1
78514;SHT31;67814;51.976;5.810;2023-03-14T15:30:52;9.3;39.5
78514;SHT31;67814;51.976;5.810;2023-03-14T15:33:23;9.3;40.4
78514;SHT31;67814;51.976;5.810;2023-03-14T15:35:53;9.3;39.5
78514;SHT31;67814;51.976;5.810;2023-03-14T15:38:24;9.3;40.5
78514;SHT31;67814;51.976;5.810;2023-03-14T15:40:54;9.3;40.6
78514;SHT31;67814;51.976;5.810;2023-03-14T15:43:23;9.4;40.6
78514;SHT31;67814;51.976;5.810;2023-03-14T15:45:53;9.4;41.8
78514;SHT31;67814;51.976;5.810;2023-03-14T15:48:24;9.4;41.0
78514;SHT31;67814;51.976;5.810;2023-03-14T15:50:54;9.5;40.7
78514;SHT31;67814;51.976;5.810;2023-03-14T15:53:23;9.5;39.8
78514;SHT31;67814;51.976;5.810;2023-03-14T15:55:53;9.5;39.7
78514;SHT31;67814;51.976;5.810;2023-03-14T15:58:22;9.4;39.6
78514;SHT31;67814;51.976;5.810;2023-03-14T16:00:52;9.4;39.6
78514;SHT31;67814;51.976;5.810;2023-03-14T16:03:24;9.4;40.4
78514;SHT31;67814;51.976;5.810;2023-03-14T16:05:53;9.3;38.6
78514;SHT31;67814;51.976;5.810;2023-03-14T16:08:23;9.3;39.0
78514;SHT31;67814;51.976;5.810;2023-03-14T16:10:58;9.3;38.5
78514;SHT31;67814;51.976;5.810;2023-03-14T16:13:28;9.2;39.3
78514;SHT31;67814;51.976;5.810;2023-03-14T16:16:00;9.2;38.3
78514;SHT31;67814;51.976;5.810;2023-03-14T16:18:32;9.2;38.1
78514;SHT31;67814;51.976;5.810;2023-03-14T16:21:04;9.2;38.6
78514;SHT31;67814;51.976;5.810;2023-03-14T16:23:35;9.2;38.3
78514;SHT31;67814;51.976;5.810;2023-03-14T16:26:08;9.1;38.3
78514;SHT31;67814;51.976;5.810;2023-03-14T16:28:38;9.1;38.7
78514;SHT31;67814;51.976;5.810;2023-03-14T16:31:10;9.1;39.9
78514;SHT31;67814;51.976;5.810;2023-03-14T16:33:41;9.1;39.8
78514;SHT31;67814;51.976;5.810;2023-03-14T16:36:12;9.1;40.6
78514;SHT31;67814;51.976;5.810;2023-03-14T16:38:44;9.0;40.2
78514;SHT31;67814;51.976;5.810;2023-03-14T16:41:15;9.0;39.9
78514;SHT31;67814;51.976;5.810;2023-03-14T16:43:46;9.0;40.8
78514;SHT31;67814;51.976;5.810;2023-03-14T16:46:19;9.0;40.1